Time;durP1;ratioP1;P1;durP2;ratioP2;P2;SDS_P1;SDS_P2;PMS_P1;PMS_P2;Temp;Humidity;BMP_temperature;BMP_pressure;BME280_temperature;BME280_humidity;BME280_pressure;Samples;Min_cycle;Max_cycle;Signal;HPM_P1;HPM_P2
2022/02/07 00:00:44;;;;;;;;;22.50;19.00;;;;;8.13;74.32;98376.34;6282848;20;2500290;-44
2022/02/07 00:03:22;;;;;;;;;19.00;19.00;;;;;8.20;73.82;98360.72;6282893;20;2496096;-44
2022/02/07 00:05:50;;;;;;;;;19.67;19.67;;;;;8.04;74.44;98355.63;6284843;20;3564997;-44
2022/02/07 00:08:21;;;;;;;;;10.00;8.17;;;;;8.25;74.07;98347.00;6356744;20;1800243;-45
2022/02/07 00:10:49;;;;;;;;;28.00;23.50;;;;;7.87;74.86;98347.97;6287541;20;2845095;-45
2022/02/07 00:13:17;;;;;;;;;24.00;20.00;;;;;8.18;73.84;98343.06;6284270;20;2831539;-46
2022/02/07 00:15:45;;;;;;;;;21.00;18.00;;;;;8.20;74.26;98339.31;6282972;20;2823696;-44
2022/02/07 00:18:14;;;;;;;;;25.50;21.00;;;;;7.98;74.98;98334.72;6285225;20;2831561;-44
2022/02/07 00:20:42;;;;;;;;;25.00;23.00;;;;;8.03;74.67;98318.31;6287419;20;2842112;-44
2022/02/07 00:23:11;;;;;;;;;26.00;20.33;;;;;7.93;74.82;98315.47;6283209;20;3561861;-43
2022/02/07 00:25:39;;;;;;;;;27.50;21.50;;;;;7.89;74.77;98316.66;6277846;20;2847170;-44
2022/02/07 00:28:07;;;;;;;;;22.50;19.00;;;;;7.92;75.13;98319.09;6283950;20;2498206;-45
2022/02/07 00:30:35;;;;;;;;;23.50;19.00;;;;;8.01;74.59;98313.09;6286285;20;2841905;-44
2022/02/07 00:33:04;;;;;;;;;29.67;18.33;;;;;7.61;76.18;98299.97;6282240;20;3591918;-44
2022/02/07 00:35:32;;;;;;;;;19.00;18.50;;;;;7.78;76.11;98301.41;6313008;20;2822146;-44
2022/02/07 00:38:08;;;;;;;;;21.33;18.00;;;;;7.60;75.62;98298.22;6280479;20;3549319;-44
2022/02/07 00:43:26;;;;;;;;;24.67;19.33;;;;;7.76;76.99;98307.81;6285278;20;3569138;-44
2022/02/07 00:46:05;;;;;;;;;18.00;15.00;;;;;7.72;76.30;98306.34;6285674;20;2807533;-45
2022/02/07 00:48:33;;;;;;;;;22.50;18.50;;;;;7.46;77.44;98307.22;6286259;20;2827337;-44
2022/02/07 00:51:02;;;;;;;;;23.67;22.00;;;;;7.61;78.81;98304.41;6280797;20;3574289;-45
2022/02/07 00:53:33;;;;;;;;;18.50;16.00;;;;;7.93;77.24;98283.41;6285827;20;2826367;-44
2022/02/07 00:56:04;;;;;;;;;20.33;18.00;;;;;7.72;77.40;98284.97;6281786;20;3555497;-43
2022/02/07 00:58:33;;;;;;;;;26.00;20.00;;;;;7.67;77.29;98285.31;6280435;20;3560792;-44
2022/02/07 01:01:01;;;;;;;;;17.00;16.00;;;;;7.94;77.64;98285.09;6282448;20;2492087;-44
2022/02/07 01:03:29;;;;;;;;;23.50;19.50;;;;;7.80;76.98;98280.78;6283393;20;2831628;-43
2022/02/07 01:05:58;;;;;;;;;20.33;19.00;;;;;7.69;77.30;98283.38;6283226;20;3564830;-44
2022/02/07 01:08:38;;;;;;;;;20.00;16.00;;;;;7.86;77.10;98271.47;6314377;20;2820060;-44
2022/02/07 01:47:28;;;;;;;;;23.75;18.50;;;;;7.24;84.64;98147.75;6326578;20;1902386;-44
2022/02/07 01:55:15;;;;;;;;;19.33;16.00;;;;;7.19;86.12;98127.69;6311829;20;3551331;-43
2022/02/07 01:57:46;;;;;;;;;24.50;24.50;;;;;7.32;85.20;98116.94;6277029;20;2500429;-47
2022/02/07 02:00:17;;;;;;;;;27.00;22.50;;;;;7.27;84.71;98117.31;6278830;20;2500315;-46
2022/02/07 02:02:47;;;;;;;;;26.00;25.00;;;;;7.36;84.27;98102.41;6281035;20;2848208;-44
2022/02/07 02:05:16;;;;;;;;;31.00;25.00;;;;;7.43;83.70;98093.84;6279404;20;2500357;-44
2022/02/07 02:07:44;;;;;;;;;33.00;26.50;;;;;7.55;84.49;98085.88;6277757;20;2496191;-46
2022/02/07 02:10:12;;;;;;;;;27.00;22.00;;;;;7.60;83.27;98084.56;6276764;20;2496084;-45
2022/02/07 02:12:57;;;;;;;;;26.00;24.00;;;;;7.74;81.86;98085.34;6282625;20;2848197;-46
2022/02/07 02:47:27;;;;;;;;;26.00;22.00;;;;;7.38;80.84;98057.78;6287590;20;3578407;-45
2022/02/07 02:50:09;;;;;;;;;24.50;24.50;;;;;7.49;81.57;98055.16;6283906;20;2500282;-47
2022/02/07 02:52:39;;;;;;;;;29.50;23.50;;;;;7.44;81.52;98057.31;6285128;20;2849228;-51
2022/02/07 02:55:07;;;;;;;;;24.00;20.00;;;;;7.75;80.36;98060.34;6282823;20;2500505;-50
2022/02/07 02:57:35;;;;;;;;;31.00;25.50;;;;;7.53;80.77;98053.97;6284595;20;2491982;-46
2022/02/07 03:00:06;;;;;;;;;32.50;23.50;;;;;7.51;80.72;98052.38;6284045;20;2863820;-46
2022/02/07 03:02:34;;;;;;;;;30.50;25.50;;;;;7.53;80.52;98045.94;6285221;20;2854416;-45
2022/02/07 03:05:03;;;;;;;;;28.00;26.50;;;;;7.62;80.43;98037.22;6281260;20;2498162;-44
2022/02/07 03:07:32;;;;;;;;;33.50;28.00;;;;;7.26;81.70;98043.50;6282534;20;2852343;-46
2022/02/07 03:10:02;;;;;;;;;26.50;25.50;;;;;7.62;80.50;98042.56;6282734;20;2850904;-46
2022/02/07 03:12:33;;;;;;;;;34.50;27.50;;;;;7.65;80.32;98045.00;6282540;20;2856577;-44
2022/02/07 03:16:36;;;;;;;;;24.50;21.00;;;;;7.78;79.71;98044.06;6283526;20;2835819;-44
2022/02/07 03:17:51;;;;;;;;;27.00;24.50;;;;;7.77;79.47;98040.56;6284984;20;2848258;-47
2022/02/07 03:20:20;;;;;;;;;30.50;23.50;;;;;7.66;80.03;98044.03;6283664;20;2839844;-50
2022/02/07 03:22:47;;;;;;;;;27.50;23.00;;;;;7.73;79.85;98024.88;6283942;20;2500369;-46
2022/02/07 03:25:15;;;;;;;;;31.00;26.00;;;;;7.87;79.51;98021.97;6281016;20;2500242;-47
2022/02/07 03:27:44;;;;;;;;;24.50;23.00;;;;;7.63;81.01;98019.38;6281566;20;2500354;-45
2022/02/07 03:30:13;;;;;;;;;32.50;27.00;;;;;7.73;79.58;98009.69;6284851;20;2861747;-48
2022/02/07 03:32:41;;;;;;;;;30.00;25.50;;;;;7.64;80.63;98008.59;6285425;20;2853447;-44
2022/02/07 03:35:10;;;;;;;;;37.00;30.00;;;;;7.73;79.96;98003.50;6283285;20;2858664;-46
2022/02/07 03:37:39;;;;;;;;;34.50;29.50;;;;;8.03;80.53;97993.13;6283904;20;2853437;-45
2022/02/07 03:40:09;;;;;;;;;29.00;29.00;;;;;7.96;79.81;97985.69;6282908;20;2554422;-44
2022/02/07 03:42:37;;;;;;;;;31.50;28.00;;;;;7.90;79.79;97977.19;6318353;20;2841942;-44
2022/02/07 03:45:07;;;;;;;;;28.50;24.00;;;;;8.03;78.91;97958.38;6283095;20;2855455;-45
2022/02/07 03:47:37;;;;;;;;;32.00;29.00;;;;;7.79;79.56;97990.50;6284620;20;2854495;-45
2022/02/07 03:50:08;;;;;;;;;32.50;31.00;;;;;8.10;78.79;98002.31;6282589;20;2500291;-44
2022/02/07 03:52:38;;;;;;;;;25.50;23.00;;;;;8.04;78.92;98005.50;6281119;20;2500360;-44
2022/02/07 03:55:07;;;;;;;;;29.50;23.50;;;;;7.99;78.48;97999.66;6282216;20;2840323;-44
2022/02/07 03:57:35;;;;;;;;;35.50;28.00;;;;;8.03;78.64;97995.78;6278291;20;2500241;-44
2022/02/07 04:00:10;;;;;;;;;27.50;26.00;;;;;8.05;78.11;97983.13;6283742;20;2850267;-45
2022/02/07 04:02:44;;;;;;;;;32.00;27.00;;;;;7.96;78.78;97980.34;6283704;20;2854423;-44
2022/02/07 04:07:52;;;;;;;;;38.67;29.67;;;;;7.95;78.16;97976.81;6315674;20;2869074;-44
2022/02/07 04:10:22;;;;;;;;;24.00;23.00;;;;;8.02;78.46;97971.84;6315882;20;2846106;-44
2022/02/07 04:12:57;;;;;;;;;30.00;28.00;;;;;8.03;78.21;97973.53;6284851;20;2845188;-45
2022/02/07 04:15:26;;;;;;;;;32.00;27.00;;;;;8.00;78.93;97955.91;6278835;20;2860791;-44
2022/02/07 04:18:00;;;;;;;;;34.50;28.50;;;;;7.86;78.44;97946.31;6283970;20;2855620;-44
2022/02/07 04:20:29;;;;;;;;;30.00;25.50;;;;;7.79;78.43;97938.91;6282898;20;2847152;-43
2022/02/07 04:22:58;;;;;;;;;30.00;25.00;;;;;7.75;78.80;97959.66;6282350;20;2848159;-43
2022/02/07 04:25:26;;;;;;;;;32.00;22.00;;;;;7.20;81.21;97969.25;6280431;20;2851284;-44
2022/02/07 04:27:55;;;;;;;;;33.00;27.50;;;;;7.49;80.87;97975.03;6283375;20;2846300;-44
2022/02/07 04:30:24;;;;;;;;;29.50;25.50;;;;;7.60;81.22;97977.72;6281693;20;2852349;-48
2022/02/07 04:32:53;;;;;;;;;33.50;27.50;;;;;7.58;80.08;97979.69;6283037;20;2858576;-47
2022/02/07 04:35:21;;;;;;;;;27.00;27.00;;;;;7.50;80.67;97974.06;6280296;20;2852795;-45
2022/02/07 04:37:50;;;;;;;;;28.50;23.00;;;;;7.77;80.07;97975.59;6282653;20;2838791;-43
2022/02/07 04:40:19;;;;;;;;;32.00;27.50;;;;;7.68;79.08;97969.97;6277577;20;2853506;-44
2022/02/07 04:42:48;;;;;;;;;41.67;35.67;;;;;7.76;79.30;97966.69;6282458;20;2867035;-44
2022/02/07 04:48:27;;;;;;;;;43.67;37.00;;;;;7.64;79.88;97976.53;6315059;20;2874292;-44
2022/02/07 05:03:54;;;;;;;;;31.50;29.00;;;;;7.93;79.32;97965.41;6312792;20;2854441;-45
2022/02/07 05:14:50;;;;;;;;;40.00;36.33;;;;;7.77;79.61;97988.94;6278311;20;3612983;-45
2022/02/07 05:17:21;;;;;;;;;40.33;34.67;;;;;7.79;80.00;97995.00;6313225;20;2851421;-44
2022/02/07 05:19:50;;;;;;;;;37.67;32.67;;;;;7.78;79.28;98012.00;6313753;20;2863868;-44
2022/02/07 05:22:19;;;;;;;;;30.00;26.00;;;;;7.71;80.14;98008.94;6310763;20;2846125;-45
2022/02/07 05:24:48;;;;;;;;;41.67;28.00;;;;;7.49;81.14;98001.75;6281998;20;3624175;-45
2022/02/07 05:27:17;;;;;;;;;39.33;33.33;;;;;7.43;81.15;98005.72;6314323;20;3610658;-45
2022/02/07 05:29:46;;;;;;;;;41.67;36.00;;;;;7.51;81.25;98009.66;6283405;20;3614793;-44
2022/02/07 05:32:16;;;;;;;;;31.50;30.00;;;;;7.73;81.43;98007.03;6312438;20;2846074;-45
2022/02/07 05:34:46;;;;;;;;;46.33;32.00;;;;;7.68;81.86;98023.38;6280393;20;2875446;-45
2022/02/07 05:37:16;;;;;;;;;42.67;36.67;;;;;7.65;83.40;98012.94;6312761;20;2860663;-45
2022/02/07 05:39:50;;;;;;;;;43.00;37.00;;;;;7.65;83.57;98010.28;6314043;20;3619238;-44
2022/02/07 05:42:18;;;;;;;;;52.00;40.50;;;;;7.59;84.04;98024.09;6280914;20;2863803;-45
2022/02/07 05:44:48;;;;;;;;;49.50;37.00;;;;;7.33;85.35;98018.06;6280012;20;2862727;-46
2022/02/07 05:47:16;;;;;;;;;44.50;38.50;;;;;7.38;86.95;98026.59;6281279;20;2852074;-43
2022/02/07 05:49:46;;;;;;;;;53.33;41.33;;;;;7.44;87.37;98025.25;6282883;20;2866300;-45
2022/02/07 05:52:15;;;;;;;;;47.50;40.00;;;;;7.45;87.56;98030.50;6310187;20;2861737;-44
2022/02/07 05:54:45;;;;;;;;;38.50;36.50;;;;;7.43;88.66;98034.25;6281641;20;2860716;-44
2022/02/07 05:57:14;;;;;;;;;55.50;44.00;;;;;7.37;90.26;98040.91;6278603;20;2493033;-44
2022/02/07 05:59:42;;;;;;;;;58.50;43.50;;;;;7.14;90.91;98031.94;6281460;20;2873278;-44
2022/02/07 06:02:13;;;;;;;;;48.00;39.33;;;;;7.32;91.19;98032.41;6281877;20;2863992;-44
2022/02/07 06:04:41;;;;;;;;;54.67;43.67;;;;;7.22;91.18;98036.72;6310185;20;3598189;-45
2022/02/07 06:07:11;;;;;;;;;65.67;47.67;;;;;7.24;91.97;98040.97;6279418;20;2876459;-44
2022/02/07 06:09:40;;;;;;;;;61.33;47.67;;;;;7.10;92.72;98042.94;6312871;20;2877398;-46
2022/02/07 06:12:10;;;;;;;;;59.67;46.33;;;;;7.12;93.15;98036.53;6313217;20;2865953;-44
2022/02/07 06:14:40;;;;;;;;;48.00;39.67;;;;;7.23;93.55;98039.25;6309842;20;2865878;-46
2022/02/07 06:17:10;;;;;;;;;53.50;40.00;;;;;7.19;93.96;98037.78;6312214;20;2845106;-45
2022/02/07 06:19:39;;;;;;;;;53.50;41.50;;;;;7.26;93.29;98033.69;6280080;20;2860779;-47
2022/02/07 06:22:09;;;;;;;;;55.33;40.00;;;;;7.40;93.66;98032.66;6281800;20;2879448;-44
2022/02/07 06:24:38;;;;;;;;;58.67;45.67;;;;;7.39;93.24;98022.09;6310250;20;2875494;-47
2022/02/07 06:27:08;;;;;;;;;48.67;40.67;;;;;7.33;93.56;98022.56;6312903;20;3621210;-44
2022/02/07 06:29:36;;;;;;;;;58.50;45.00;;;;;7.40;93.70;98018.47;6312095;20;2865873;-44
2022/02/07 06:32:07;;;;;;;;;61.67;41.67;;;;;7.38;93.55;98025.75;6281985;20;2899193;-45
2022/02/07 06:34:36;;;;;;;;;56.67;42.67;;;;;7.41;93.94;98036.19;6314961;20;3615975;-44
2022/02/07 06:37:07;;;;;;;;;50.50;41.00;;;;;7.36;94.89;98038.34;6273842;20;2492974;-44
2022/02/07 06:39:36;;;;;;;;;58.00;46.50;;;;;7.29;94.89;98042.44;6281132;20;2850290;-44
2022/02/07 06:42:06;;;;;;;;;57.67;43.33;;;;;7.33;94.50;98033.25;6277771;20;2871554;-44
2022/02/07 06:44:35;;;;;;;;;51.00;42.50;;;;;7.32;95.01;98036.84;6309881;20;2848190;-45
2022/02/07 06:47:04;;;;;;;;;49.50;42.00;;;;;7.35;94.87;98036.66;6280100;20;2841948;-46
2022/02/07 06:49:33;;;;;;;;;57.00;43.50;;;;;7.32;95.24;98044.88;6281452;20;2864897;-44
2022/02/07 06:52:02;;;;;;;;;56.00;43.50;;;;;7.13;96.72;98054.25;6280702;20;2871213;-46
2022/02/07 06:54:32;;;;;;;;;55.33;40.00;;;;;7.20;96.80;98050.16;6278528;20;2866903;-45
2022/02/07 06:57:01;;;;;;;;;43.33;37.67;;;;;7.35;95.89;98058.00;6314113;20;3608608;-45
2022/02/07 06:59:36;;;;;;;;;50.00;36.67;;;;;7.35;96.14;98058.84;6290564;20;3612704;-44
2022/02/07 07:02:05;;;;;;;;;49.33;41.33;;;;;7.23;95.82;98063.28;6313312;20;3590897;-44
2022/02/07 07:04:34;;;;;;;;;48.00;41.33;;;;;7.26;96.44;98052.38;6317159;20;3601292;-48
2022/02/07 07:07:02;;;;;;;;;46.50;42.00;;;;;7.41;96.36;98052.19;6282453;20;2501413;-46
2022/02/07 07:09:33;;;;;;;;;45.00;37.50;;;;;7.41;95.77;98054.88;6285308;20;2867003;-45
2022/02/07 07:12:05;;;;;;;;;41.67;34.33;;;;;7.40;95.64;98061.19;6287215;20;3613886;-45
2022/02/07 07:14:46;;;;;;;;;47.00;39.50;;;;;7.38;95.92;98068.47;6315673;20;2852476;-46
2022/02/07 07:17:16;;;;;;;;;44.33;34.67;;;;;7.31;96.39;98067.19;6283498;20;3624249;-44
2022/02/07 07:19:46;;;;;;;;;40.00;33.67;;;;;7.44;96.29;98068.00;6317296;20;3625214;-44
2022/02/07 07:22:15;;;;;;;;;26.50;22.50;;;;;7.41;96.79;98070.88;6312490;20;2844020;-44
2022/02/07 07:24:45;;;;;;;;;21.00;21.00;;;;;7.36;95.20;98071.22;6283909;20;2500418;-46
2022/02/07 07:27:20;;;;;;;;;20.33;17.00;;;;;7.55;94.38;98081.38;6285700;20;3561810;-44
2022/02/07 07:29:48;;;;;;;;;20.33;19.00;;;;;7.66;93.25;98083.25;6287674;20;3562758;-44
2022/02/07 07:32:21;;;;;;;;;14.00;12.50;;;;;7.51;93.01;98079.06;6283600;20;2792036;-44
2022/02/07 07:34:50;;;;;;;;;17.00;15.33;;;;;7.54;93.62;98101.06;6284707;20;3542031;-45
2022/02/07 07:37:19;;;;;;;;;14.00;14.00;;;;;7.48;93.49;98102.38;6316393;20;3536829;-44
2022/02/07 07:39:47;;;;;;;;;18.00;14.33;;;;;7.42;92.96;98104.63;6314887;20;3529388;-44
2022/02/07 07:42:16;;;;;;;;;17.33;13.33;;;;;7.59;93.26;98114.06;6313780;20;3542984;-43
2022/02/07 07:44:47;;;;;;;;;18.67;16.00;;;;;7.24;93.53;98113.03;6313297;20;3564868;-44
2022/02/07 07:47:20;;;;;;;;;13.00;13.00;;;;;7.36;93.90;98116.63;6284494;20;2789897;-43
2022/02/07 07:49:58;;;;;;;;;11.50;8.50;;;;;7.21;94.00;98126.63;6285378;20;2759738;-43
2022/02/07 07:52:42;;;;;;;;;12.50;11.00;;;;;7.33;93.12;98116.84;6285901;20;2796475;-44
2022/02/07 08:03:18;;;;;;;;;10.00;8.00;;;;;7.80;90.20;98128.47;6285227;20;2769033;-45
2022/02/07 08:05:52;;;;;;;;;6.00;6.00;;;;;7.74;89.41;98123.63;6287598;20;2748170;-43
2022/02/07 08:08:28;;;;;;;;;6.00;3.50;;;;;7.59;87.89;98125.59;6319244;20;2754497;-43
2022/02/07 08:13:31;;;;;;;;;7.00;7.00;;;;;7.74;86.61;98130.75;6286710;20;2735659;-44
2022/02/07 08:16:00;;;;;;;;;4.00;4.00;;;;;7.86;85.02;98128.00;6303898;20;1812838;-43
2022/02/07 08:18:28;;;;;;;;;10.00;6.00;;;;;7.77;84.72;98128.72;6319274;20;2748168;-43
2022/02/07 08:20:56;;;;;;;;;6.50;6.50;;;;;7.69;84.70;98131.13;6287121;20;2741940;-43
2022/02/07 08:23:24;;;;;;;;;3.00;2.00;;;;;7.48;83.96;98118.38;6288225;20;2746127;-44
2022/02/07 08:25:53;;;;;;;;;5.00;5.00;;;;;7.62;83.28;98129.84;6286383;20;2754447;-43
2022/02/07 08:28:41;;;;;;;;;2.00;2.00;;;;;7.42;83.15;98134.00;6302672;20;1815974;-45
2022/02/07 08:31:10;;;;;;;;;3.00;3.00;;;;;6.99;83.03;98131.78;6333217;20;1803407;-44
2022/02/07 08:33:39;;;;;;;;;6.50;6.25;;;;;7.47;82.85;98147.88;6334040;20;1818135;-45
2022/02/07 08:36:07;;;;;;;;;6.00;3.50;;;;;7.52;83.46;98140.38;6333592;20;1822352;-43
2022/02/07 08:38:35;;;;;;;;;5.00;2.00;;;;;7.12;83.42;98164.63;6318310;20;3458609;-43
2022/02/07 08:41:03;;;;;;;;;6.00;3.50;;;;;7.24;83.67;98158.41;6286519;20;2744119;-44
2022/02/07 08:43:32;;;;;;;;;5.00;3.00;;;;;7.28;83.70;98147.50;6334663;20;1813901;-43
2022/02/07 08:46:00;;;;;;;;;4.75;1.75;;;;;7.08;83.69;98152.47;6335517;20;1806983;-43
2022/02/07 08:48:29;;;;;;;;;3.25;3.25;;;;;7.00;84.55;98146.81;6334292;20;1811800;-43
2022/02/07 08:50:57;;;;;;;;;3.00;3.00;;;;;7.00;84.43;98163.72;6319597;20;2742960;-43
2022/02/07 08:53:32;;;;;;;;;3.00;3.00;;;;;7.19;84.60;98165.91;6334170;20;1825807;-43
2022/02/07 08:56:02;;;;;;;;;5.00;2.00;;;;;6.88;83.83;98180.59;6334189;20;1813876;-43
2022/02/07 08:58:34;;;;;;;;;6.00;6.00;;;;;7.30;83.99;98180.31;6334086;20;1818118;-43
2022/02/07 09:01:15;;;;;;;;;9.00;4.00;;;;;7.13;83.56;98174.34;6315514;20;2754500;-44
2022/02/07 09:06:34;;;;;;;;;2.50;1.00;;;;;7.37;82.27;98189.53;6334116;20;1806522;-42
2022/02/07 09:09:17;;;;;;;;;3.00;1.00;;;;;7.55;81.16;98190.88;6331437;20;1809643;-44
2022/02/07 09:11:46;;;;;;;;;2.00;2.00;;;;;7.47;80.81;98203.94;6335212;20;1815978;-43
2022/02/07 09:14:21;;;;;;;;;1.75;1.75;;;;;7.24;80.94;98217.16;6332883;20;1808027;-44
2022/02/07 09:16:51;;;;;;;;;0.00;0.00;;;;;7.45;79.83;98204.06;6335952;20;1803453;-42
2022/02/07 09:19:20;;;;;;;;;0.25;0.25;;;;;7.33;80.10;98222.78;6334320;20;1802396;-44
2022/02/07 09:21:49;;;;;;;;;1.00;1.00;;;;;7.07;80.19;98212.16;6335007;20;1803440;-44
2022/02/07 09:24:18;;;;;;;;;0.75;0.75;;;;;7.56;79.26;98216.63;6332184;20;1809673;-45
2022/02/07 09:26:47;;;;;;;;;1.25;1.25;;;;;7.41;79.27;98223.94;6330755;20;1807556;-46
2022/02/07 09:29:15;;;;;;;;;2.00;2.00;;;;;7.54;78.58;98234.59;6334475;20;1800386;-46
2022/02/07 09:31:43;;;;;;;;;2.00;2.00;;;;;7.30;78.02;98231.03;6316441;20;2753427;-45
2022/02/07 09:34:11;;;;;;;;;1.00;1.00;;;;;7.79;77.49;98240.78;6301326;20;1816022;-43
2022/02/07 09:36:39;;;;;;;;;1.00;1.00;;;;;7.25;73.29;98240.19;6314033;20;3446139;-45
2022/02/07 09:39:08;;;;;;;;;0.50;0.00;;;;;7.31;73.15;98249.59;6302603;20;1809684;-44
2022/02/07 09:41:37;;;;;;;;;0.50;0.50;;;;;7.68;72.10;98244.25;6333079;20;1807632;-45
2022/02/07 09:44:07;;;;;;;;;0.25;0.25;;;;;7.22;73.81;98240.44;6333881;20;1807593;-47
2022/02/07 09:46:45;;;;;;;;;0.50;0.50;;;;;7.01;73.48;98256.13;6331056;20;1802951;-44
2022/02/07 09:49:22;;;;;;;;;0.00;0.00;;;;;7.01;72.35;98276.63;6332890;20;1809684;-44
2022/02/07 09:51:52;;;;;;;;;0.00;0.00;;;;;7.03;72.68;98291.59;6331206;20;1809691;-45
2022/02/07 09:54:22;;;;;;;;;1.50;0.00;;;;;6.98;71.65;98279.53;6330337;20;1803435;-45
2022/02/07 09:56:52;;;;;;;;;2.00;1.00;;;;;7.49;70.74;98300.81;6334574;20;1807611;-44
2022/02/07 09:59:26;;;;;;;;;2.00;1.00;;;;;7.36;71.06;98300.00;6331895;20;1809724;-44
2022/02/07 10:01:58;;;;;;;;;0.00;0.00;;;;;7.44;69.67;98327.00;6333379;20;1810090;-43
2022/02/07 10:04:38;;;;;;;;;1.00;1.00;;;;;7.79;69.57;98323.63;6331692;20;1807254;-44
2022/02/07 10:12:55;;;;;;;;;1.00;1.00;;;;;7.53;65.99;98310.34;6332839;20;1805977;-43
2022/02/07 10:15:43;;;;;;;;;1.25;0.00;;;;;7.53;64.93;98339.72;6330383;20;1803855;-43
2022/02/07 10:38:06;;;;;;;;;1.00;1.00;;;;;7.20;64.29;98428.34;6334627;20;1809733;-44
2022/02/07 10:40:53;;;;;;;;;9.00;6.00;;;;;7.32;64.71;98439.97;6319818;20;2750393;-44
2022/02/07 10:46:18;;;;;;;;;13.00;11.00;;;;;6.89;64.25;98462.41;6316831;20;2777358;-45
2022/02/07 10:48:54;;;;;;;;;2.33;1.00;;;;;7.19;64.47;98448.84;6287479;20;3449238;-45
2022/02/07 10:51:31;;;;;;;;;1.67;1.67;;;;;7.58;64.43;98446.22;6288085;20;3440942;-44
2022/02/07 10:54:12;;;;;;;;;8.60;6.00;;;;;7.85;63.06;98451.47;6312628;20;2748365;-45
2022/02/07 10:56:47;;;;;;;;;16.00;12.50;;;;;7.90;63.78;98449.31;6317435;20;2785782;-44
2022/02/07 10:59:21;;;;;;;;;4.00;3.00;;;;;7.57;63.73;98437.34;6285798;20;3458588;-43
2022/02/07 11:04:45;;;;;;;;;12.00;8.00;;;;;7.57;61.76;98440.00;6314194;20;2777364;-43
2022/02/07 11:07:16;;;;;;;;;18.00;15.00;;;;;7.67;63.56;98438.41;6286016;20;2808582;-43
2022/02/07 11:10:03;;;;;;;;;18.50;15.00;;;;;7.78;61.86;98444.84;6286668;20;2809119;-43
2022/02/07 11:16:00;;;;;;;;;6.00;6.00;;;;;7.50;60.71;98428.03;6289075;20;2745063;-45
2022/02/07 11:23:49;;;;;;;;;10.00;7.00;;;;;7.79;60.29;98458.06;6318865;20;2751336;-43
2022/02/07 11:26:13;;;;;;;;;13.67;11.33;;;;;7.41;60.38;98448.22;6284501;20;2796076;-44
2022/02/07 11:28:43;;;;;;;;;8.00;1.00;;;;;7.72;59.92;98455.97;6317904;20;2741940;-44
2022/02/07 11:31:12;;;;;;;;;11.50;10.50;;;;;7.82;59.99;98467.69;6286911;20;2776275;-44
2022/02/07 11:34:22;;;;;;;;;10.80;8.80;;;;;7.70;59.99;98475.59;6309664;20;2753542;-44
2022/02/07 11:36:42;;;;;;;;;5.00;3.25;;;;;7.60;60.54;98463.84;6332421;20;1814938;-43
2022/02/07 11:39:16;;;;;;;;;8.00;8.00;;;;;7.57;60.87;98474.75;6319721;20;2748376;-43
2022/02/07 11:41:56;;;;;;;;;8.00;6.00;;;;;7.83;61.29;98496.13;6320658;20;2483601;-43
2022/02/07 11:44:36;;;;;;;;;3.00;3.00;;;;;7.57;61.19;98496.09;6315333;20;2751309;-44
2022/02/07 11:47:26;;;;;;;;;2.75;2.00;;;;;7.81;59.56;98511.41;6303865;20;1818071;-42
2022/02/07 11:50:07;;;;;;;;;1.25;1.25;;;;;7.70;60.01;98496.13;6334782;20;1805481;-46
2022/02/07 11:52:43;;;;;;;;;14.43;8.43;;;;;7.60;58.65;98527.94;6353980;20;1809426;-43
2022/02/07 11:55:27;;;;;;;;;15.00;10.00;;;;;7.99;60.19;98515.47;6316504;20;2791916;-44
2022/02/07 11:58:02;;;;;;;;;7.00;4.00;;;;;7.89;59.11;98517.06;6287194;20;2746134;-44
2022/02/07 12:00:38;;;;;;;;;3.00;2.00;;;;;8.08;58.37;98540.69;6336742;20;1813614;-43
2022/02/07 12:03:08;;;;;;;;;10.00;10.00;;;;;8.01;59.64;98534.94;6318041;20;2765000;-43
2022/02/07 12:05:54;;;;;;;;;21.00;12.50;;;;;7.76;61.32;98553.63;6280807;20;2808647;-50
2022/02/07 12:08:27;;;;;;;;;14.00;11.50;;;;;7.75;59.63;98539.41;6287912;20;2783608;-45
2022/02/07 12:11:04;;;;;;;;;22.50;10.00;;;;;7.84;58.55;98562.81;6283150;20;2806501;-45
2022/02/07 12:13:42;;;;;;;;;14.00;11.00;;;;;7.79;58.99;98580.13;6287878;20;2796090;-46
2022/02/07 12:16:23;;;;;;;;;22.00;17.00;;;;;8.03;58.19;98582.94;6285007;20;2823336;-45
2022/02/07 12:19:10;;;;;;;;;1.00;0.00;;;;;8.31;58.04;98564.00;6287767;20;3431630;-43
2022/02/07 12:21:39;;;;;;;;;1.75;1.00;;;;;8.32;57.42;98583.56;6336899;20;1797291;-49
2022/02/07 12:24:08;;;;;;;;;1.00;1.00;;;;;8.64;56.76;98604.59;6332213;20;1805506;-47
2022/02/07 12:26:45;;;;;;;;;1.25;1.25;;;;;8.76;55.71;98582.28;6337265;20;1809727;-50
2022/02/07 12:29:31;;;;;;;;;12.00;6.00;;;;;8.03;56.70;98607.88;6316883;20;2775334;-46
2022/02/07 12:31:59;;;;;;;;;6.67;3.67;;;;;8.22;56.94;98611.94;6287965;20;3455519;-45
2022/02/07 12:34:29;;;;;;;;;12.25;3.00;;;;;8.13;57.10;98627.63;6301458;20;1809117;-48
2022/02/07 12:36:57;;;;;;;;;6.50;3.00;;;;;7.92;57.29;98626.44;6315965;20;2763834;-45
2022/02/07 12:39:25;;;;;;;;;10.00;2.50;;;;;7.74;57.37;98635.69;6285812;20;2762786;-44
2022/02/07 12:41:58;;;;;;;;;4.00;3.00;;;;;8.16;56.04;98644.44;6285799;20;2756532;-47
2022/02/07 12:44:28;;;;;;;;;6.50;1.00;;;;;7.91;55.19;98654.13;6283223;20;2748265;-45
2022/02/07 12:46:57;;;;;;;;;0.00;0.00;;;;;7.55;54.41;98652.94;6334119;20;1809824;-44
2022/02/07 12:49:26;;;;;;;;;17.00;5.00;;;;;7.93;55.01;98681.63;6312484;20;2795026;-45
2022/02/07 12:51:54;;;;;;;;;8.00;2.25;;;;;7.89;54.80;98672.06;6304774;20;1819771;-46
2022/02/07 12:54:23;;;;;;;;;2.25;0.50;;;;;7.50;53.40;98686.25;6332709;20;1812884;-44
2022/02/07 12:57:01;;;;;;;;;9.40;5.60;;;;;7.51;54.18;98693.31;6340269;20;2773190;-46
2022/02/07 12:59:32;;;;;;;;;12.00;6.00;;;;;7.90;56.26;98692.53;6281279;20;2771085;-48
2022/02/07 13:02:00;;;;;;;;;30.50;12.00;;;;;7.74;53.62;98705.16;6286094;20;2835656;-45
2022/02/07 13:04:28;;;;;;;;;24.50;13.00;;;;;8.31;53.72;98719.13;6281887;20;2810702;-45
2022/02/07 13:07:03;;;;;;;;;33.00;23.00;;;;;7.87;53.62;98700.72;6283273;20;2487849;-45
2022/02/07 13:09:51;;;;;;;;;8.00;3.00;;;;;7.66;55.01;98719.91;6281163;20;2753487;-47
2022/02/07 13:13:16;;;;;;;;;27.67;17.33;;;;;7.85;55.19;98721.38;6283002;20;3579395;-46
2022/02/07 13:15:18;;;;;;;;;21.00;7.80;;;;;7.76;56.08;98727.28;6301656;20;2804414;-49
2022/02/07 13:17:50;;;;;;;;;17.50;12.50;;;;;7.41;56.71;98736.63;6281511;20;2795067;-48
2022/02/07 13:20:23;;;;;;;;;16.60;7.40;;;;;7.26;55.71;98735.78;6307437;20;2785722;-46
2022/02/07 13:23:23;;;;;;;;;23.00;15.50;;;;;7.23;56.30;98749.34;6284783;20;2830519;-47
2022/02/07 13:25:54;;;;;;;;;18.50;9.00;;;;;7.42;57.09;98757.03;6282502;20;2787737;-44
2022/02/07 13:28:33;;;;;;;;;10.75;7.75;;;;;7.34;57.20;98745.13;6299108;20;1831621;-47
2022/02/07 13:31:02;;;;;;;;;12.00;8.00;;;;;7.30;57.29;98746.28;6316670;20;2761703;-49
2022/02/07 13:33:30;;;;;;;;;2.00;1.00;;;;;7.30;56.47;98754.31;6285271;20;2733579;-44
2022/02/07 13:35:59;;;;;;;;;5.50;4.75;;;;;7.29;56.74;98763.25;6331548;20;1821138;-44
2022/02/07 13:38:27;;;;;;;;;15.00;8.00;;;;;7.58;56.77;98761.41;6314385;20;2777368;-45
2022/02/07 13:41:01;;;;;;;;;6.00;3.50;;;;;7.26;56.83;98769.63;6302303;20;1812311;-45
2022/02/07 13:43:33;;;;;;;;;3.50;3.50;;;;;7.19;56.76;98768.34;6315546;20;2745036;-45
2022/02/07 13:46:05;;;;;;;;;24.33;16.33;;;;;7.12;56.58;98781.19;6283525;20;3579410;-50
2022/02/07 13:48:34;;;;;;;;;10.00;7.00;;;;;7.24;56.42;98782.22;6280880;20;2781512;-47
2022/02/07 13:51:02;;;;;;;;;13.00;8.00;;;;;7.68;58.00;98792.75;6287031;20;2763778;-48
2022/02/07 13:53:31;;;;;;;;;4.00;3.00;;;;;7.58;54.94;98806.81;6301325;20;1821313;-44
2022/02/07 13:56:02;;;;;;;;;1.67;1.67;;;;;7.50;55.31;98799.28;6335559;20;1802401;-46
2022/02/07 13:59:22;;;;;;;;;17.00;13.00;;;;;7.42;55.63;98812.25;6312841;20;2797172;-47
2022/02/07 14:01:52;;;;;;;;;5.00;5.00;;;;;7.89;56.01;98819.06;6299129;20;1817008;-45
2022/02/07 14:04:25;;;;;;;;;11.00;3.50;;;;;7.97;56.04;98838.13;6312596;20;2769117;-45
2022/02/07 14:07:16;;;;;;;;;5.00;3.00;;;;;8.15;53.82;98838.75;6284876;20;2756908;-44
2022/02/07 14:09:44;;;;;;;;;10.00;3.00;;;;;7.75;55.44;98845.81;6282685;20;2763835;-45
2022/02/07 14:12:13;;;;;;;;;7.25;5.25;;;;;7.77;55.03;98850.13;6300793;20;1817063;-45